createdAt,value
2023-05-19T00:00:04.373Z,7.00
2023-05-19T00:00:14.412Z,8.50
2023-05-19T00:00:24.463Z,9.60
2023-05-19T00:00:34.768Z,9.10
2023-05-19T00:00:47.554Z,8.00
2023-05-19T00:00:54.671Z,7.80
2023-05-19T00:01:04.717Z,8.40
2023-05-19T00:01:14.765Z,11.30
2023-05-19T00:01:24.831Z,10.20
2023-05-19T00:01:34.850Z,10.60
2023-05-19T00:01:44.894Z,8.30
2023-05-19T00:01:55.022Z,8.40
2023-05-19T00:02:05.126Z,8.80
2023-05-19T00:02:15.136Z,8.20
2023-05-19T00:02:25.279Z,8.40
2023-05-19T00:02:35.400Z,6.60
2023-05-19T00:02:45.506Z,6.80
2023-05-19T00:02:55.671Z,7.80
2023-05-19T00:03:05.732Z,7.60
2023-05-19T00:03:15.726Z,8.50
2023-05-19T00:03:25.892Z,8.50
2023-05-19T00:03:35.962Z,8.20
2023-05-19T00:03:46.023Z,9.20
2023-05-19T00:03:56.076Z,8.50
2023-05-19T00:04:06.125Z,8.40
2023-05-19T00:04:16.173Z,7.10
2023-05-19T00:04:26.209Z,8.50
2023-05-19T00:04:36.249Z,9.10
2023-05-19T00:04:46.285Z,8.10
2023-05-19T00:04:56.320Z,8.30
2023-05-19T00:05:06.356Z,8.30
2023-05-19T00:05:16.414Z,9.10
2023-05-19T00:05:26.472Z,10.10
2023-05-19T00:05:36.528Z,9.70
2023-05-19T00:05:46.604Z,9.40
2023-05-19T00:05:56.679Z,6.80
2023-05-19T00:06:06.735Z,7.20
2023-05-19T00:06:16.924Z,6.70
2023-05-19T00:06:26.910Z,6.60
2023-05-19T00:06:36.958Z,7.10
2023-05-19T00:06:47.008Z,7.80
2023-05-19T00:06:57.060Z,7.90
2023-05-19T00:07:07.175Z,7.60
2023-05-19T00:07:17.219Z,7.50
2023-05-19T00:07:27.288Z,7.90
2023-05-19T00:07:37.373Z,7.90
2023-05-19T00:07:47.406Z,8.00
2023-05-19T00:07:57.463Z,7.90
2023-05-19T00:08:07.502Z,8.30
2023-05-19T00:08:17.551Z,9.20
2023-05-19T00:08:27.610Z,8.70
2023-05-19T00:08:37.671Z,9.50
2023-05-19T00:08:47.712Z,8.40
2023-05-19T00:08:57.776Z,7.50
2023-05-19T00:09:07.864Z,6.70
2023-05-19T00:09:17.863Z,8.00
2023-05-19T00:09:27.900Z,9.20
2023-05-19T00:09:37.949Z,9.30
2023-05-19T00:09:48.028Z,9.00
2023-05-19T00:09:58.066Z,8.10
2023-05-19T00:10:08.099Z,7.80
2023-05-19T00:10:18.184Z,8.30
2023-05-19T00:10:28.214Z,9.80
2023-05-19T00:10:38.257Z,9.00
2023-05-19T00:10:48.306Z,8.60
2023-05-19T00:10:58.401Z,9.40
2023-05-19T00:11:08.421Z,10.40
2023-05-19T00:11:18.463Z,9.40
2023-05-19T00:11:28.520Z,7.80
2023-05-19T00:11:38.587Z,8.60
2023-05-19T00:11:48.623Z,10.80
2023-05-19T00:11:58.685Z,11.00
2023-05-19T00:12:08.742Z,10.50
2023-05-19T00:12:18.801Z,9.40
2023-05-19T00:12:28.847Z,9.20
2023-05-19T00:12:38.911Z,9.00
2023-05-19T00:12:48.966Z,8.20
2023-05-19T00:12:59.027Z,5.80
2023-05-19T00:13:09.075Z,8.00
2023-05-19T00:13:19.150Z,10.10
2023-05-19T00:13:29.201Z,10.70
2023-05-19T00:13:39.239Z,9.00
2023-05-19T00:13:49.307Z,7.50
2023-05-19T00:13:59.378Z,7.70
2023-05-19T00:14:09.448Z,8.00
2023-05-19T00:14:19.475Z,8.60
2023-05-19T00:14:29.553Z,9.00
2023-05-19T00:14:39.572Z,10.50
2023-05-19T00:14:49.625Z,10.80
2023-05-19T00:14:59.680Z,13.60
2023-05-19T00:15:09.751Z,12.00
2023-05-19T00:15:19.804Z,10.60
2023-05-19T00:15:29.842Z,6.20
2023-05-19T00:15:39.916Z,5.20
2023-05-19T00:15:49.968Z,7.70
2023-05-19T00:16:00.047Z,10.20
2023-05-19T00:16:10.023Z,11.70
2023-05-19T00:16:20.117Z,9.20
2023-05-19T00:16:30.263Z,8.20
2023-05-19T00:16:40.241Z,9.40
2023-05-19T00:16:50.301Z,9.50
2023-05-19T00:17:00.353Z,9.50
2023-05-19T00:17:10.381Z,8.20
2023-05-19T00:17:20.432Z,8.40
2023-05-19T00:17:30.518Z,9.40
2023-05-19T00:17:40.575Z,12.00
2023-05-19T00:17:50.699Z,11.90
2023-05-19T00:18:00.767Z,10.50
2023-05-19T00:18:10.919Z,7.10
2023-05-19T00:18:20.950Z,6.20
2023-05-19T00:18:31.005Z,6.40
2023-05-19T00:18:41.064Z,6.70
2023-05-19T00:18:51.175Z,8.70
2023-05-19T00:19:01.231Z,8.60
2023-05-19T00:19:11.294Z,8.90
2023-05-19T00:19:21.393Z,7.10
2023-05-19T00:19:31.459Z,7.10
2023-05-19T00:19:41.501Z,6.40
2023-05-19T00:19:51.552Z,6.40
2023-05-19T00:20:01.710Z,7.50
2023-05-19T00:20:11.757Z,7.20
2023-05-19T00:20:21.804Z,9.70
2023-05-19T00:20:32.081Z,10.10
2023-05-19T00:20:41.900Z,10.10
2023-05-19T00:20:51.970Z,8.10
2023-05-19T00:21:02.038Z,6.10
2023-05-19T00:21:12.086Z,7.90
2023-05-19T00:21:22.154Z,8.80
2023-05-19T00:21:32.203Z,8.70
2023-05-19T00:21:42.224Z,6.80
2023-05-19T00:21:52.266Z,7.40
2023-05-19T00:22:02.306Z,7.60
2023-05-19T00:22:12.367Z,8.10
2023-05-19T00:22:22.413Z,6.60
2023-05-19T00:22:32.452Z,6.80
2023-05-19T00:22:42.487Z,6.40
2023-05-19T00:22:52.520Z,5.20
2023-05-19T00:23:02.576Z,5.50
2023-05-19T00:23:12.576Z,6.00
2023-05-19T00:23:22.620Z,6.70
2023-05-19T00:23:32.667Z,7.10
2023-05-19T00:23:42.716Z,8.60
2023-05-19T00:23:52.776Z,8.90
2023-05-19T00:24:02.851Z,8.60
2023-05-19T00:24:12.860Z,6.40
2023-05-19T00:24:22.896Z,8.00
2023-05-19T00:24:32.933Z,8.00
2023-05-19T00:24:42.983Z,8.00
2023-05-19T00:24:53.009Z,8.50
2023-05-19T00:25:03.047Z,8.70
2023-05-19T00:25:13.077Z,9.40
2023-05-19T00:25:23.134Z,7.40
2023-05-19T00:25:33.158Z,6.20
2023-05-19T00:25:43.204Z,6.60
2023-05-19T00:25:53.260Z,7.60
2023-05-19T00:26:03.397Z,8.60
2023-05-19T00:26:13.435Z,7.70
2023-05-19T00:26:23.493Z,7.10
2023-05-19T00:26:33.547Z,6.20
2023-05-19T00:26:43.593Z,7.40
2023-05-19T00:26:53.637Z,7.90
2023-05-19T00:27:03.711Z,8.50
2023-05-19T00:27:13.738Z,9.40
2023-05-19T00:27:23.793Z,8.50
2023-05-19T00:27:33.820Z,7.90
2023-05-19T00:27:43.856Z,6.20
2023-05-19T00:27:53.896Z,5.60
2023-05-19T00:28:03.946Z,5.60
2023-05-19T00:28:13.984Z,5.60
2023-05-19T00:28:24.074Z,7.80
2023-05-19T00:28:34.126Z,9.90
2023-05-19T00:28:44.185Z,11.20
2023-05-19T00:28:54.216Z,10.50
2023-05-19T00:29:04.266Z,9.50
2023-05-19T00:29:14.322Z,9.80
2023-05-19T00:29:24.361Z,8.00
2023-05-19T00:29:34.401Z,7.20
2023-05-19T00:29:44.452Z,6.00
2023-05-19T00:29:54.488Z,8.20
2023-05-19T00:30:04.535Z,7.30
2023-05-19T00:30:14.597Z,9.50
2023-05-19T00:30:24.663Z,8.90
2023-05-19T00:30:34.723Z,10.10
2023-05-19T00:30:44.758Z,8.10
2023-05-19T00:30:54.792Z,7.60
2023-05-19T00:31:04.821Z,7.70
2023-05-19T00:31:14.895Z,7.00
2023-05-19T00:31:24.973Z,6.60
2023-05-19T00:31:35.085Z,7.80
2023-05-19T00:31:45.107Z,7.70
2023-05-19T00:31:55.214Z,7.60
2023-05-19T00:32:05.296Z,5.70
2023-05-19T00:32:15.337Z,5.50
2023-05-19T00:32:25.428Z,7.50
2023-05-19T00:32:35.501Z,9.70
2023-05-19T00:32:45.641Z,13.30
2023-05-19T00:32:55.555Z,11.70
2023-05-19T00:33:05.661Z,9.80
2023-05-19T00:33:15.668Z,6.30
2023-05-19T00:33:25.714Z,6.30
2023-05-19T00:33:35.781Z,5.50
2023-05-19T00:33:45.823Z,4.60
2023-05-19T00:33:55.861Z,4.90
2023-05-19T00:34:05.912Z,5.20
2023-05-19T00:34:15.956Z,5.70
2023-05-19T00:34:26.004Z,6.20
2023-05-19T00:34:36.050Z,7.30
2023-05-19T00:34:46.085Z,8.10
2023-05-19T00:34:56.143Z,9.20
2023-05-19T00:35:06.189Z,9.70
2023-05-19T00:35:16.245Z,9.30
2023-05-19T00:35:26.276Z,8.80
2023-05-19T00:35:36.313Z,7.10
2023-05-19T00:35:46.357Z,6.70
2023-05-19T00:35:56.423Z,6.20
2023-05-19T00:36:06.474Z,7.60
2023-05-19T00:36:16.527Z,8.40
2023-05-19T00:36:26.595Z,9.90
2023-05-19T00:36:36.638Z,10.00
2023-05-19T00:36:46.688Z,10.40
2023-05-19T00:36:56.729Z,10.10
2023-05-19T00:37:06.782Z,9.10
2023-05-19T00:37:16.824Z,8.20
2023-05-19T00:37:26.873Z,8.00
2023-05-19T00:37:36.945Z,8.20
2023-05-19T00:37:47.010Z,8.60
2023-05-19T00:37:57.057Z,8.30
2023-05-19T00:38:07.087Z,8.70
2023-05-19T00:38:17.176Z,9.50
2023-05-19T00:38:27.209Z,8.50
2023-05-19T00:38:37.288Z,7.80
2023-05-19T00:38:47.294Z,7.20
2023-05-19T00:38:57.355Z,7.80
2023-05-19T00:39:07.416Z,12.60
2023-05-19T00:39:17.482Z,11.40
2023-05-19T00:39:27.514Z,10.60
2023-05-19T00:39:37.570Z,6.60
2023-05-19T00:39:47.602Z,7.80
2023-05-19T00:39:57.656Z,8.00
2023-05-19T00:40:07.693Z,8.60
2023-05-19T00:40:17.763Z,8.60
2023-05-19T00:40:27.845Z,7.90
2023-05-19T00:40:37.860Z,6.20
2023-05-19T00:40:47.941Z,6.80
2023-05-19T00:40:57.981Z,6.10
2023-05-19T00:41:08.064Z,8.40
2023-05-19T00:41:18.097Z,7.30
2023-05-19T00:41:28.144Z,7.40
2023-05-19T00:41:38.186Z,7.70
2023-05-19T00:41:48.245Z,7.20
2023-05-19T00:41:58.272Z,6.60
2023-05-19T00:42:08.313Z,5.80
2023-05-19T00:42:18.351Z,8.90
2023-05-19T00:42:28.378Z,9.70
2023-05-19T00:42:38.415Z,10.40
2023-05-19T00:42:48.460Z,7.60
2023-05-19T00:42:58.529Z,7.00
2023-05-19T00:43:08.567Z,5.70
2023-05-19T00:43:18.626Z,5.10
2023-05-19T00:43:28.654Z,6.10
2023-05-19T00:43:38.698Z,6.60
2023-05-19T00:43:48.723Z,6.20
2023-05-19T00:43:58.763Z,6.20
2023-05-19T00:44:08.791Z,5.90
2023-05-19T00:44:18.863Z,6.60
2023-05-19T00:44:28.903Z,6.80
2023-05-19T00:44:38.923Z,7.10
2023-05-19T00:44:48.966Z,7.00
2023-05-19T00:44:59.018Z,6.20
2023-05-19T00:45:09.085Z,6.60
2023-05-19T00:45:19.209Z,7.40
2023-05-19T00:45:29.259Z,9.70
2023-05-19T00:45:39.292Z,8.60
2023-05-19T00:45:49.366Z,9.40
2023-05-19T00:45:59.395Z,7.20
2023-05-19T00:46:09.446Z,7.00
2023-05-19T00:46:19.545Z,6.10
2023-05-19T00:46:29.599Z,6.10
2023-05-19T00:46:39.643Z,6.40
2023-05-19T00:46:49.692Z,6.00
2023-05-19T00:46:59.850Z,5.50
2023-05-19T00:47:09.897Z,5.20
2023-05-19T00:47:19.985Z,7.30
2023-05-19T00:47:30.145Z,7.60
2023-05-19T00:47:40.219Z,8.40
2023-05-19T00:47:50.282Z,6.30
2023-05-19T00:48:00.409Z,6.20
2023-05-19T00:48:10.446Z,6.00
2023-05-19T00:48:20.490Z,7.20
2023-05-19T00:48:30.526Z,6.50
2023-05-19T00:48:40.562Z,6.50
2023-05-19T00:48:50.631Z,8.20
2023-05-19T00:49:00.638Z,8.80
2023-05-19T00:49:10.692Z,10.40
2023-05-19T00:49:20.780Z,8.10
2023-05-19T00:49:30.807Z,8.70
2023-05-19T00:49:40.852Z,7.60
2023-05-19T00:49:50.883Z,7.40
2023-05-19T00:50:00.937Z,7.00
2023-05-19T00:50:10.974Z,6.60
2023-05-19T00:50:21.027Z,6.40
2023-05-19T00:50:31.237Z,6.40
2023-05-19T00:50:41.093Z,5.90
2023-05-19T00:50:51.141Z,6.30
2023-05-19T00:51:01.174Z,7.50
2023-05-19T00:51:11.236Z,9.30
2023-05-19T00:51:21.283Z,9.20
2023-05-19T00:51:31.328Z,11.20
2023-05-19T00:51:41.373Z,10.00
2023-05-19T00:51:51.411Z,10.80
2023-05-19T00:52:01.441Z,8.20
2023-05-19T00:52:11.477Z,8.70
2023-05-19T00:52:21.523Z,7.50
2023-05-19T00:52:31.564Z,7.40
2023-05-19T00:52:41.611Z,8.00
2023-05-19T00:52:51.646Z,9.00
2023-05-19T00:53:01.703Z,6.80
2023-05-19T00:53:11.748Z,6.30
2023-05-19T00:53:21.783Z,5.90
2023-05-19T00:53:31.836Z,6.20
2023-05-19T00:53:41.916Z,4.90
2023-05-19T00:53:51.970Z,3.70
2023-05-19T00:54:02.024Z,4.50
2023-05-19T00:54:12.123Z,7.40
2023-05-19T00:54:22.177Z,9.90
2023-05-19T00:54:32.234Z,10.30
2023-05-19T00:54:42.296Z,8.00
2023-05-19T00:54:52.398Z,7.40
2023-05-19T00:55:02.449Z,6.90
2023-05-19T00:55:12.500Z,7.30
2023-05-19T00:55:22.549Z,6.00
2023-05-19T00:55:32.602Z,6.70
2023-05-19T00:55:42.637Z,7.00
2023-05-19T00:55:52.687Z,7.20
2023-05-19T00:56:02.717Z,5.60
2023-05-19T00:56:12.761Z,7.00
2023-05-19T00:56:22.846Z,9.00
2023-05-19T00:56:32.882Z,9.30
2023-05-19T00:56:42.938Z,7.80
2023-05-19T00:56:52.984Z,5.60
2023-05-19T00:57:03.022Z,5.70
2023-05-19T00:57:13.064Z,5.40
2023-05-19T00:57:23.101Z,5.60
2023-05-19T00:57:33.144Z,5.60
2023-05-19T00:57:43.172Z,6.20
2023-05-19T00:57:53.231Z,7.90
2023-05-19T00:58:03.322Z,9.70
2023-05-19T00:58:13.394Z,10.00
2023-05-19T00:58:23.434Z,10.30
2023-05-19T00:58:33.514Z,7.70
2023-05-19T00:58:43.548Z,7.80
2023-05-19T00:58:53.614Z,7.50
2023-05-19T00:59:03.661Z,7.10
2023-05-19T00:59:13.705Z,7.00
2023-05-19T00:59:23.760Z,6.50
2023-05-19T00:59:33.810Z,7.40
2023-05-19T00:59:43.856Z,7.50
2023-05-19T00:59:53.905Z,7.70
2023-05-19T01:00:03.948Z,6.70
2023-05-19T01:00:14.008Z,7.10
2023-05-19T01:00:24.059Z,6.80
2023-05-19T01:00:34.445Z,7.60
2023-05-19T01:00:44.167Z,8.00
2023-05-19T01:00:54.226Z,7.20
2023-05-19T01:01:05.037Z,7.30
2023-05-19T01:01:14.364Z,6.60
2023-05-19T01:01:24.480Z,6.80
2023-05-19T01:01:34.646Z,6.90
2023-05-19T01:01:44.619Z,6.30
2023-05-19T01:01:54.654Z,6.70
2023-05-19T01:02:04.728Z,6.20
2023-05-19T01:02:14.773Z,6.50
2023-05-19T01:02:24.956Z,5.50
2023-05-19T01:02:34.942Z,4.20
2023-05-19T01:02:44.929Z,4.50
2023-05-19T01:02:55.051Z,5.40
2023-05-19T01:03:05.143Z,6.00
2023-05-19T01:03:15.349Z,6.10
2023-05-19T01:03:25.318Z,6.30
2023-05-19T01:03:35.733Z,5.50
2023-05-19T01:03:45.484Z,7.70
2023-05-19T01:03:55.456Z,7.10
2023-05-19T01:04:05.636Z,7.60
2023-05-19T01:04:15.538Z,6.60
2023-05-19T01:04:25.662Z,8.20
2023-05-19T01:04:35.671Z,7.60
2023-05-19T01:04:45.736Z,6.60
2023-05-19T01:04:55.771Z,5.70
2023-05-19T01:05:05.807Z,5.70
2023-05-19T01:05:15.851Z,5.60
2023-05-19T01:05:25.912Z,5.50
2023-05-19T01:05:36.016Z,5.80
2023-05-19T01:05:46.050Z,7.80
2023-05-19T01:05:56.102Z,6.90
2023-05-19T01:06:06.153Z,7.20
2023-05-19T01:06:16.203Z,5.40
2023-05-19T01:06:26.247Z,6.10
2023-05-19T01:06:36.288Z,7.00
2023-05-19T01:06:46.341Z,8.70
2023-05-19T01:06:56.400Z,9.00
2023-05-19T01:07:06.465Z,8.60
2023-05-19T01:07:16.515Z,6.10
2023-05-19T01:07:26.553Z,4.80
2023-05-19T01:07:36.613Z,5.20
2023-05-19T01:07:46.661Z,5.60
2023-05-19T01:07:56.737Z,6.20
2023-05-19T01:08:06.785Z,5.50
2023-05-19T01:08:16.847Z,6.60
2023-05-19T01:08:26.940Z,7.50
2023-05-19T01:08:36.977Z,8.80
2023-05-19T01:08:47.023Z,7.70
2023-05-19T01:08:57.066Z,6.60
2023-05-19T01:09:07.099Z,4.90
2023-05-19T01:09:17.159Z,6.00
2023-05-19T01:09:27.206Z,6.10
2023-05-19T01:09:37.257Z,7.60
2023-05-19T01:09:47.309Z,6.90
2023-05-19T01:09:57.375Z,7.10
2023-05-19T01:10:07.434Z,6.00
2023-05-19T01:10:17.477Z,5.60
2023-05-19T01:10:27.514Z,6.60
2023-05-19T01:10:37.572Z,6.80
2023-05-19T01:10:47.616Z,8.10
2023-05-19T01:10:57.679Z,7.10
2023-05-19T01:11:07.754Z,6.40
2023-05-19T01:11:17.797Z,6.70
2023-05-19T01:11:27.825Z,7.30
2023-05-19T01:11:37.880Z,9.50
2023-05-19T01:11:47.944Z,10.20
2023-05-19T01:11:57.982Z,9.10
2023-05-19T01:12:08.049Z,6.60
2023-05-19T01:12:18.113Z,6.70
2023-05-19T01:12:28.163Z,6.90
2023-05-19T01:12:38.246Z,7.60
2023-05-19T01:12:48.301Z,6.60
2023-05-19T01:12:58.355Z,6.40
2023-05-19T01:13:08.427Z,6.60
2023-05-19T01:13:18.440Z,5.60
2023-05-19T01:13:28.495Z,9.20
2023-05-19T01:13:41.096Z,10.20
2023-05-19T01:13:48.638Z,10.50
2023-05-19T01:13:58.681Z,6.70
2023-05-19T01:14:08.708Z,5.00
2023-05-19T01:14:18.744Z,7.00
2023-05-19T01:14:28.781Z,6.70
2023-05-19T01:14:38.834Z,6.80
2023-05-19T01:14:48.869Z,6.70
2023-05-19T01:14:58.905Z,6.30
2023-05-19T01:15:08.937Z,6.70
2023-05-19T01:15:18.957Z,3.90
2023-05-19T01:15:28.995Z,4.70
2023-05-19T01:15:39.040Z,5.40
2023-05-19T01:15:49.079Z,6.90
2023-05-19T01:15:59.144Z,8.10
2023-05-19T01:16:09.221Z,9.40
2023-05-19T01:16:19.315Z,10.20
2023-05-19T01:16:29.397Z,8.80
2023-05-19T01:16:39.507Z,7.50
2023-05-19T01:16:49.648Z,6.60
2023-05-19T01:16:59.697Z,6.30
2023-05-19T01:17:09.749Z,5.80
2023-05-19T01:17:19.789Z,4.70
2023-05-19T01:17:29.883Z,5.10
2023-05-19T01:17:39.961Z,5.40
2023-05-19T01:17:50.067Z,6.00
2023-05-19T01:18:00.153Z,6.70
2023-05-19T01:18:10.271Z,7.80
2023-05-19T01:18:20.334Z,9.00
2023-05-19T01:18:30.351Z,8.10
2023-05-19T01:18:40.426Z,7.30
2023-05-19T01:18:50.462Z,6.00
2023-05-19T01:19:00.535Z,6.10
2023-05-19T01:19:10.659Z,5.20
2023-05-19T01:19:20.764Z,6.20
2023-05-19T01:19:30.673Z,8.10
2023-05-19T01:19:40.715Z,9.10
2023-05-19T01:19:50.787Z,7.10
2023-05-19T01:20:00.809Z,6.60
2023-05-19T01:20:10.860Z,6.00
2023-05-19T01:20:20.964Z,8.10
2023-05-19T01:20:31.258Z,7.50
2023-05-19T01:20:41.180Z,7.70
2023-05-19T01:20:51.217Z,6.50
2023-05-19T01:21:01.271Z,6.80
2023-05-19T01:21:11.329Z,8.10
2023-05-19T01:21:21.374Z,10.60
2023-05-19T01:21:31.414Z,10.90
2023-05-19T01:21:41.482Z,9.10
2023-05-19T01:21:51.547Z,7.30
2023-05-19T01:22:01.624Z,7.40
2023-05-19T01:22:11.663Z,8.10
2023-05-19T01:22:21.722Z,10.40
2023-05-19T01:22:31.784Z,8.90
2023-05-19T01:22:41.797Z,8.00
2023-05-19T01:22:51.837Z,5.40
2023-05-19T01:23:01.872Z,5.80
2023-05-19T01:23:11.907Z,8.10
2023-05-19T01:23:21.944Z,7.90
2023-05-19T01:23:31.999Z,8.30
2023-05-19T01:23:42.033Z,6.00
2023-05-19T01:23:52.069Z,5.30
2023-05-19T01:24:02.125Z,4.00
2023-05-19T01:24:12.179Z,6.50
2023-05-19T01:24:22.205Z,6.50
2023-05-19T01:24:32.406Z,7.90
2023-05-19T01:24:42.424Z,5.30
2023-05-19T01:24:52.451Z,5.10
2023-05-19T01:25:02.506Z,5.10
2023-05-19T01:25:12.563Z,6.80
2023-05-19T01:25:22.649Z,9.20
2023-05-19T01:25:32.677Z,7.80
2023-05-19T01:25:42.734Z,7.20
2023-05-19T01:25:52.758Z,5.20
2023-05-19T01:26:02.805Z,7.00
2023-05-19T01:26:12.861Z,7.90
2023-05-19T01:26:22.902Z,8.90
2023-05-19T01:26:32.942Z,8.20
2023-05-19T01:26:43.027Z,6.60
2023-05-19T01:26:53.055Z,6.20
2023-05-19T01:27:03.107Z,5.70
2023-05-19T01:27:13.161Z,4.80
2023-05-19T01:27:23.220Z,4.90
2023-05-19T01:27:33.265Z,5.40
2023-05-19T01:27:43.340Z,6.00
2023-05-19T01:27:53.340Z,6.90
2023-05-19T01:28:03.382Z,6.30
2023-05-19T01:28:13.420Z,7.40
2023-05-19T01:28:23.452Z,6.90
2023-05-19T01:28:33.495Z,8.90
2023-05-19T01:28:43.528Z,8.40
2023-05-19T01:28:53.584Z,9.50
2023-05-19T01:29:03.615Z,7.20
2023-05-19T01:29:13.648Z,8.00
2023-05-19T01:29:23.683Z,7.10
2023-05-19T01:29:33.695Z,7.00
2023-05-19T01:29:43.727Z,6.10
2023-05-19T01:29:53.767Z,5.90
2023-05-19T01:30:03.808Z,5.40
2023-05-19T01:30:13.872Z,9.50
2023-05-19T01:30:23.886Z,10.10
2023-05-19T01:30:34.174Z,11.40
2023-05-19T01:30:43.976Z,7.50
2023-05-19T01:30:54.046Z,7.00
2023-05-19T01:31:04.112Z,5.90
2023-05-19T01:31:14.179Z,6.90
2023-05-19T01:31:24.313Z,8.20
2023-05-19T01:31:34.375Z,8.90
2023-05-19T01:31:44.428Z,8.70
2023-05-19T01:31:54.481Z,7.70
2023-05-19T01:32:04.589Z,8.50
2023-05-19T01:32:14.658Z,9.10
2023-05-19T01:32:24.808Z,8.90
2023-05-19T01:32:34.836Z,10.10
2023-05-19T01:32:44.922Z,9.00
2023-05-19T01:32:54.978Z,9.50
2023-05-19T01:33:05.063Z,7.20
2023-05-19T01:33:15.088Z,6.50
2023-05-19T01:33:25.128Z,5.40
2023-05-19T01:33:35.171Z,4.40
2023-05-19T01:33:45.217Z,5.00
2023-05-19T01:33:55.276Z,4.70
2023-05-19T01:34:05.350Z,5.70
2023-05-19T01:34:15.342Z,5.50
2023-05-19T01:34:25.425Z,6.30
2023-05-19T01:34:35.499Z,7.50
2023-05-19T01:34:45.531Z,7.90
2023-05-19T01:34:55.589Z,7.40
2023-05-19T01:35:05.664Z,6.50
2023-05-19T01:35:15.700Z,9.10
2023-05-19T01:35:25.795Z,9.20
2023-05-19T01:35:35.803Z,11.70
2023-05-19T01:35:45.899Z,9.80
2023-05-19T01:35:55.970Z,9.40
2023-05-19T01:36:06.002Z,6.90
2023-05-19T01:36:16.068Z,6.00
2023-05-19T01:36:26.114Z,6.10
2023-05-19T01:36:36.154Z,6.20
2023-05-19T01:36:46.206Z,5.80
2023-05-19T01:36:56.235Z,5.70
2023-05-19T01:37:06.263Z,5.00
2023-05-19T01:37:16.305Z,4.80
2023-05-19T01:37:26.338Z,4.80
2023-05-19T01:37:36.380Z,5.30
2023-05-19T01:37:46.443Z,5.90
2023-05-19T01:37:56.493Z,7.20
2023-05-19T01:38:06.551Z,7.60
2023-05-19T01:38:16.585Z,8.50
2023-05-19T01:38:26.644Z,7.50
2023-05-19T01:38:36.662Z,8.40
2023-05-19T01:38:46.716Z,7.00
2023-05-19T01:38:56.738Z,8.70
2023-05-19T01:39:06.809Z,8.40
2023-05-19T01:39:16.868Z,9.50
2023-05-19T01:39:26.957Z,9.00
2023-05-19T01:39:36.999Z,7.70
2023-05-19T01:39:47.053Z,7.40
2023-05-19T01:39:57.116Z,5.80
2023-05-19T01:40:07.181Z,8.30
2023-05-19T01:40:17.229Z,8.00
2023-05-19T01:40:27.327Z,8.60
2023-05-19T01:40:37.387Z,5.90
2023-05-19T01:40:47.469Z,6.20
2023-05-19T01:40:57.534Z,6.90
2023-05-19T01:41:07.564Z,8.50
2023-05-19T01:41:17.603Z,9.50
2023-05-19T01:41:27.630Z,7.80
2023-05-19T01:41:37.692Z,7.40
2023-05-19T01:41:47.723Z,5.80
2023-05-19T01:41:57.768Z,7.50
2023-05-19T01:42:07.811Z,6.40
2023-05-19T01:42:17.856Z,8.80
2023-05-19T01:42:27.933Z,8.90
2023-05-19T01:42:38.023Z,8.70
2023-05-19T01:42:48.026Z,7.00
2023-05-19T01:42:58.083Z,6.80
2023-05-19T01:43:08.119Z,7.60
2023-05-19T01:43:18.148Z,7.80
2023-05-19T01:43:28.196Z,6.90
2023-05-19T01:43:38.241Z,6.60
2023-05-19T01:43:48.283Z,6.20
2023-05-19T01:43:58.337Z,6.00
2023-05-19T01:44:08.376Z,6.70
2023-05-19T01:44:18.446Z,6.80
2023-05-19T01:44:28.486Z,6.60
2023-05-19T01:44:38.552Z,7.00
2023-05-19T01:44:48.594Z,8.40
2023-05-19T01:44:58.687Z,9.30
2023-05-19T01:45:08.729Z,8.40
2023-05-19T01:45:18.813Z,7.00
2023-05-19T01:45:28.850Z,6.90
2023-05-19T01:45:38.924Z,5.90
2023-05-19T01:45:49.062Z,5.50
2023-05-19T01:45:59.138Z,5.40
2023-05-19T01:46:09.070Z,6.50
2023-05-19T01:46:19.151Z,7.70
2023-05-19T01:46:29.231Z,7.60
2023-05-19T01:46:39.336Z,9.20
2023-05-19T01:46:49.388Z,8.80
2023-05-19T01:46:59.435Z,8.30
2023-05-19T01:47:09.470Z,6.30
2023-05-19T01:47:19.516Z,5.90
2023-05-19T01:47:29.631Z,5.30
2023-05-19T01:47:39.700Z,4.40
2023-05-19T01:47:49.799Z,4.70
2023-05-19T01:47:59.820Z,6.70
2023-05-19T01:48:11.273Z,8.30
2023-05-19T01:48:20.047Z,9.60
2023-05-19T01:48:30.091Z,7.80
2023-05-19T01:48:40.152Z,8.30
2023-05-19T01:48:50.179Z,6.70
2023-05-19T01:49:00.263Z,7.70
2023-05-19T01:49:10.304Z,7.70
2023-05-19T01:49:20.332Z,7.20
2023-05-19T01:49:30.418Z,6.70
2023-05-19T01:49:40.462Z,5.70
2023-05-19T01:49:50.558Z,6.70
2023-05-19T01:50:00.612Z,7.80
2023-05-19T01:50:10.745Z,16.50
2023-05-19T01:50:20.905Z,17.70
2023-05-19T01:50:31.092Z,16.00
2023-05-19T01:50:41.034Z,4.80
2023-05-19T01:50:51.079Z,4.40
2023-05-19T01:51:01.137Z,4.90
2023-05-19T01:51:11.182Z,6.60
2023-05-19T01:51:21.231Z,5.80
2023-05-19T01:51:31.293Z,6.90
2023-05-19T01:51:41.343Z,7.30
2023-05-19T01:51:51.407Z,8.00
2023-05-19T01:52:01.458Z,6.80
2023-05-19T01:52:11.538Z,6.00
2023-05-19T01:52:21.568Z,5.10
2023-05-19T01:52:31.612Z,6.00
2023-05-19T01:52:41.669Z,7.60
2023-05-19T01:53:29.032Z,4.20
2023-05-19T01:53:39.126Z,5.50
2023-05-19T01:53:49.165Z,6.40
2023-05-19T01:53:59.218Z,5.90
2023-05-19T01:54:09.251Z,6.40
2023-05-19T01:54:19.310Z,7.00
2023-05-19T01:54:29.348Z,8.40
2023-05-19T01:54:39.387Z,8.70
2023-05-19T01:54:49.467Z,7.30
2023-05-19T01:54:59.558Z,6.70
2023-05-19T01:55:09.614Z,6.00
2023-05-19T01:55:19.673Z,8.30
2023-05-19T01:55:29.719Z,7.80
2023-05-19T01:55:39.734Z,7.60
2023-05-19T01:55:49.798Z,5.30
2023-05-19T01:55:59.804Z,7.70
2023-05-19T01:56:09.822Z,8.20
2023-05-19T01:56:19.829Z,10.10
2023-05-19T01:56:29.851Z,8.40
2023-05-19T01:56:39.872Z,7.80
2023-05-19T01:56:49.873Z,7.20
2023-05-19T01:56:59.885Z,8.00
2023-05-19T01:57:09.926Z,7.20
2023-05-19T01:57:19.926Z,6.30
2023-05-19T01:57:29.918Z,5.70
2023-05-19T01:57:39.936Z,6.10
2023-05-19T01:57:49.951Z,6.00
2023-05-19T01:57:59.943Z,6.40
2023-05-19T01:58:10.115Z,6.30
2023-05-19T01:58:20.118Z,6.40
2023-05-19T01:58:30.288Z,6.90
2023-05-19T01:58:40.334Z,6.40
2023-05-19T01:58:50.347Z,5.20
2023-05-19T01:59:00.353Z,4.20
2023-05-19T01:59:10.398Z,5.00
2023-05-19T01:59:20.440Z,6.40
2023-05-19T01:59:30.465Z,7.30
2023-05-19T01:59:40.477Z,8.90
2023-05-19T01:59:50.484Z,8.20
2023-05-19T02:00:00.499Z,8.30
2023-05-19T02:00:10.504Z,7.30
2023-05-19T02:00:21.373Z,9.00
2023-05-19T02:00:31.039Z,7.30
2023-05-19T02:00:40.806Z,5.60
2023-05-19T02:00:50.891Z,3.90
2023-05-19T02:01:00.910Z,4.30
2023-05-19T02:01:10.948Z,5.30
2023-05-19T02:01:20.988Z,6.90
2023-05-19T02:01:31.013Z,7.10
2023-05-19T02:01:41.149Z,8.10
2023-05-19T02:01:51.237Z,8.00
2023-05-19T02:02:01.242Z,7.90
2023-05-19T02:02:11.264Z,7.10
2023-05-19T02:02:21.288Z,6.40
2023-05-19T02:02:31.338Z,6.80
2023-05-19T02:02:41.382Z,7.00
2023-05-19T02:02:51.421Z,7.10
2023-05-19T02:03:01.480Z,6.70
2023-05-19T02:03:11.456Z,6.50
2023-05-19T02:03:21.492Z,6.00
2023-05-19T02:03:31.501Z,6.00
2023-05-19T02:03:41.552Z,7.10
2023-05-19T02:03:51.614Z,7.70
2023-05-19T02:04:01.658Z,7.20
2023-05-19T02:04:11.696Z,6.80
2023-05-19T02:04:21.813Z,7.50
2023-05-19T02:04:31.901Z,8.20
2023-05-19T02:04:41.979Z,9.50
2023-05-19T02:04:52.112Z,9.70
2023-05-19T02:05:02.163Z,9.40
2023-05-19T02:05:12.178Z,7.40
2023-05-19T02:05:22.245Z,6.90
2023-05-19T02:05:32.264Z,7.70
2023-05-19T02:05:42.309Z,7.90
2023-05-19T02:05:52.362Z,7.90
2023-05-19T02:06:02.358Z,5.90
2023-05-19T02:06:12.385Z,6.40
2023-05-19T02:06:22.387Z,6.00
2023-05-19T02:06:32.403Z,7.50
2023-05-19T02:06:42.467Z,5.90
2023-05-19T02:06:52.480Z,5.80
2023-05-19T02:07:02.551Z,4.80
2023-05-19T02:07:12.549Z,6.10
2023-05-19T02:07:22.733Z,5.50
2023-05-19T02:07:32.757Z,5.30
2023-05-19T02:07:42.798Z,5.80
2023-05-19T02:07:52.828Z,6.50
2023-05-19T02:08:02.850Z,7.60
2023-05-19T02:08:12.872Z,6.60
2023-05-19T02:08:22.891Z,6.70
2023-05-19T02:08:32.889Z,6.30
2023-05-19T02:08:42.914Z,6.90
2023-05-19T02:08:52.945Z,6.80
2023-05-19T02:09:03.074Z,6.90
2023-05-19T02:09:13.048Z,7.40
2023-05-19T02:09:23.071Z,7.10
2023-05-19T02:09:33.100Z,7.60
2023-05-19T02:09:43.145Z,7.50
2023-05-19T02:09:53.206Z,8.70
2023-05-19T02:10:03.238Z,7.50
2023-05-19T02:10:13.263Z,7.00
2023-05-19T02:10:23.291Z,5.80
2023-05-19T02:10:33.508Z,4.80
2023-05-19T02:10:43.420Z,5.10
2023-05-19T02:10:53.446Z,5.40
2023-05-19T02:11:03.473Z,7.40
2023-05-19T02:11:13.493Z,6.80
2023-05-19T02:11:23.518Z,6.10
2023-05-19T02:11:33.529Z,4.00
2023-05-19T02:11:43.560Z,4.50
2023-05-19T02:11:53.746Z,6.50
2023-05-19T02:12:03.776Z,7.40
2023-05-19T02:12:13.802Z,6.90
2023-05-19T02:12:23.873Z,4.70
2023-05-19T02:12:33.915Z,4.70
2023-05-19T02:12:43.943Z,5.40
2023-05-19T02:12:53.965Z,6.80
2023-05-19T02:13:03.976Z,7.50
2023-05-19T02:13:14.000Z,7.50
2023-05-19T02:13:24.037Z,5.30
2023-05-19T02:13:34.066Z,5.80
2023-05-19T02:13:44.091Z,6.00
2023-05-19T02:13:54.142Z,6.90
2023-05-19T02:14:04.175Z,7.30